Latest Coastal Weather Observations for Derby

IDW60701

Issued at 4:15 pm WST Wednesday 1 October 2014 (issued every 10 minutes, with the page automatically refreshed every 10 minutes)

About coastal observations | Map of coastal stations | Coastal observations for WA | Marine services | Other Formats
Station Details ID: 003032 Name: DERBY AERO Lat: -17.37 Lon: 123.66 Height: 6.2 m
Data from the previous 72 hours. | See also: Recent months at Derby
Date/Time
WST
Temp

°C
Wind Pressure Rain
since 9am
mm
Weather Cloud Vis
km
Sea
Height
m
Swell
Dir
 
Speed
knots
Gust
knots
hPa Trend Height
m
Period
s
Dir
01/04:00pm 31.4 N 10 13 1009.4 - 0.0 - - - - - - -
01/03:30pm 32.2 NNW 12 15 1009.3 - 0.0 - - - - - - -
01/03:00pm 32.3 NNW 15 19 1009.3 - 0.0 - - - - - - -
01/02:30pm 32.5 NNW 16 19 1009.3 - 0.0 - - - - - - -
01/02:00pm 32.5 NNW 16 20 1009.8 - 0.0 - - - - - - -
01/01:30pm 32.4 NNW 17 20 1010.2 - 0.0 - - - - - - -
01/01:00pm 33.1 NW 15 17 1010.5 - 0.0 - - - - - - -
01/12:30pm 32.3 NW 15 19 1010.9 - 0.0 - - - - - - -
01/12:00pm 32.4 NW 17 21 1011.6 - 0.0 - - - - - - -
01/11:30am 31.6 NNW 16 19 1012.3 - 0.0 - - - - - - -
01/11:00am 31.6 NNW 14 19 1012.7 - 0.0 - - - - - - -
01/10:30am 31.2 NNW 14 18 1013.0 - 0.0 - - - - - - -
01/10:00am 30.8 NNW 14 18 1013.3 - 0.0 - - - - - - -
01/09:30am 29.2 NNW 14 18 1013.3 - 0.0 - - - - - - -
01/09:00am 28.9 NNW 11 15 1013.6 - 0.0 - - - - - - -
01/08:30am 28.2 NNW 12 14 1013.7 - 0.0 - - - - - - -
01/08:00am 27.7 NNW 13 17 1013.2 - 0.0 - - - - - - -
01/07:30am 27.4 NNW 14 17 1013.0 - 0.0 - - - - - - -
01/07:00am 26.2 NNW 12 15 1012.6 - 0.0 - - - - - - -
01/06:30am 24.7 N 8 11 1012.4 - 0.0 - - - - - - -
01/06:00am 23.4 N 6 7 1012.2 - 0.0 - - - - - - -
01/05:30am 23.5 N 7 8 1012.1 - 0.0 - - - - - - -
01/05:00am 23.6 N 7 9 1011.9 - 0.0 - - - - - - -
01/04:30am 23.7 N 8 10 1011.6 - 0.0 - - - - - - -
01/04:00am 23.8 N 9 11 1011.2 - 0.0 - - - - - - -
01/03:30am 23.7 N 9 11 1010.7 - 0.0 - - - - - - -
01/03:00am 23.9 N 8 11 1010.8 - 0.0 - - - - - - -
01/02:30am 24.0 N 8 9 1010.8 - 0.0 - - - - - - -
01/02:00am 24.1 N 9 12 1010.6 - 0.0 - - - - - - -
01/01:30am 24.2 N 9 11 1010.6 - 0.0 - - - - - - -
01/01:00am 24.1 N 9 11 1010.8 - 0.0 - - - - - - -
01/12:30am 24.1 N 8 11 1011.0 - 0.0 - - - - - - -
01/12:00am 24.0 N 6 8 1011.6 - 0.0 - - - - - - -
 
Date/Time
WST
Temp

°C
Wind Pressure Rain
since 9am
mm
Weather Cloud Vis
km
Sea
Height
m
Swell
Dir
 
Speed
knots
Gust
knots
hPa Trend Height
m
Period
s
Dir
30/11:30pm 24.3 N 8 10 1011.5 - 0.0 - - - - - - -
30/11:00pm 24.5 N 2 5 1011.7 - 0.0 - - - - - - -
30/10:30pm 24.9 N 8 9 1011.5 - 0.0 - - - - - - -
30/10:00pm 25.2 NNW 7 8 1011.6 - 0.0 - - - - - - -
30/09:30pm 25.7 NW 6 8 1011.8 - 0.0 - - - - - - -
30/09:00pm 26.2 NW 8 9 1011.7 - 0.0 - - - - - - -
30/08:30pm 26.3 NW 11 14 1011.4 - 0.0 - - - - - - -
30/08:00pm 26.4 NW 14 17 1011.4 - 0.0 - - - - - - -
30/07:30pm 26.8 NNW 17 20 1011.0 - 0.0 - - - - - - -
30/07:00pm 27.0 NNW 16 19 1010.5 - 0.0 - - - - - - -
30/06:30pm 27.1 NNW 17 22 1010.2 - 0.0 - - - - - - -
30/06:00pm 27.4 NNW 17 21 1009.7 - 0.0 - - - - - - -
30/05:30pm 28.1 NNW 18 21 1009.1 - 0.0 - - - - - - -
30/05:00pm 28.9 NNW 17 21 1008.7 - 0.0 - - - - - - -
30/04:30pm 30.0 NNW 18 23 1008.2 - 0.0 - - - - - - -
30/04:00pm 30.5 NNW 18 23 1008.1 - 0.0 - - - - - - -
30/03:30pm 31.1 NNW 20 24 1007.7 - 0.0 - - - - - - -
30/03:00pm 32.1 NNW 18 22 1007.7 - 0.0 - - - - - - -
30/02:30pm 33.5 NNW 17 21 1007.8 - 0.0 - - - - - - -
30/02:00pm 34.2 NNW 16 20 1007.8 - 0.0 - - - - - - -
30/01:30pm 34.2 NNW 14 18 1008.0 - 0.0 - - - - - - -
30/01:00pm 33.7 NW 14 18 1008.5 - 0.0 - - - - - - -
30/12:30pm 34.2 NNW 15 18 1008.8 - 0.0 - - - - - - -
30/12:00pm 34.0 NNW 10 13 1009.4 - 0.0 - - - - - - -
30/11:30am 34.5 NNW 8 13 1010.0 - 0.0 - - - - - - -
30/11:00am 33.1 WNW 7 11 1010.4 - 0.0 - - - - - - -
30/10:30am 33.4 NW 5 8 1011.0 - 0.0 - - - - - - -
30/10:00am 32.5 NW 6 9 1011.4 - 0.0 - - - - - - -
30/09:30am 31.2 S 4 7 1011.7 - 0.0 - - - - - - -
30/09:00am 30.9 W 3 6 1012.0 - 0.0 - - - - - - -
30/08:30am 29.7 SSW 2 5 1012.1 - 0.0 - - - - - - -
30/08:00am 28.3 WSW 4 7 1012.1 - 0.0 - - - - - - -
30/07:30am 27.3 NW 4 6 1012.1 - 0.0 - - - - - - -
30/07:00am 25.2 NNE 3 4 1011.8 - 0.0 - - - - - - -
30/06:30am 23.0 NE 3 4 1011.6 - 0.0 - - - - - - -
30/06:00am 21.0 NE 7 8 1011.3 - 0.0 - - - - - - -
30/05:30am 20.6 ENE 6 8 1011.1 - 0.0 - - - - - - -
30/05:00am 18.8 ENE 3 5 1010.8 - 0.0 - - - - - - -
30/04:30am 18.9 ENE 2 4 1010.5 - 0.0 - - - - - - -
30/04:00am 20.2 CALM 0 0 1010.0 - 0.0 - - - - - - -
30/03:30am 19.9 NE 1 3 1009.9 - 0.0 - - - - - - -
30/03:00am 21.0 E 3 4 1009.9 - 0.0 - - - - - - -
30/02:30am 20.2 CALM 0 0 1009.6 - 0.0 - - - - - - -
30/02:00am 21.4 CALM 0 0 1009.6 - 0.0 - - - - - - -
30/01:30am 22.2 SE 2 4 1009.7 - 0.0 - - - - - - -
30/01:00am 23.6 SW 4 5 1009.7 - 0.0 - - - - - - -
30/12:30am 23.8 WSW 5 7 1009.8 - 0.0 - - - - - - -
30/12:00am 24.1 SW 4 5 1009.9 - 0.0 - - - - - - -
 
Date/Time
WST
Temp

°C
Wind Pressure Rain
since 9am
mm
Weather Cloud Vis
km
Sea
Height
m
Swell
Dir
 
Speed
knots
Gust
knots
hPa Trend Height
m
Period
s
Dir
29/11:30pm 24.0 WSW 4 5 1010.2 - 0.0 - - - - - - -
29/11:00pm 25.2 W 4 5 1010.5 - 0.0 - - - - - - -
29/10:30pm 24.9 WNW 6 7 1010.7 - 0.0 - - - - - - -
29/10:00pm 25.9 NW 4 5 1010.9 - 0.0 - - - - - - -
29/09:30pm 26.1 NNW 6 7 1010.9 - 0.0 - - - - - - -
29/09:00pm 26.7 NNW 6 7 1010.9 - 0.0 - - - - - - -
29/08:30pm 27.1 NW 7 9 1010.7 - 0.0 - - - - - - -
29/08:00pm 27.2 NNW 11 12 1010.4 - 0.0 - - - - - - -
29/07:30pm 27.4 NNW 11 13 1010.1 - 0.0 - - - - - - -
29/07:00pm 27.9 NNW 11 13 1009.8 - 0.0 - - - - - - -
29/06:30pm 28.2 N 11 14 1009.1 - 0.0 - - - - - - -
29/06:00pm 28.6 N 14 18 1008.5 - 0.0 - - - - - - -
29/05:30pm 29.7 N 15 19 1008.2 - 0.0 - - - - - - -
29/05:00pm 30.3 NNW 16 20 1007.8 - 0.0 - - - - - - -
29/04:30pm 31.5 NNW 17 20 1007.4 - 0.0 - - - - - - -
29/04:00pm 36.1 NNW 15 17 1007.2 - 0.0 - - - - - - -
29/03:30pm 36.5 NNW 15 17 1007.1 - 0.0 - - - - - - -
29/03:00pm 35.9 NW 17 18 1007.1 - 0.0 - - - - - - -
29/02:30pm 36.4 NNW 16 18 1007.2 - 0.0 - - - - - - -
29/02:00pm 36.7 NW 15 18 1007.3 - 0.0 - - - - - - -
29/01:30pm 37.6 NNW 16 22 1007.3 - 0.0 - - - - - - -
29/01:27pm 37.4 NNW 15 22 1007.4 - 0.0 - - - - - - -
29/01:00pm 39.1 ESE 7 10 1007.8 - 0.0 - - - - - - -
29/12:30pm 39.0 E 5 9 1008.4 - 0.0 - - - - - - -
29/12:00pm 39.1 SSE 12 17 1009.0 - 0.0 - - - - - - -
29/11:30am 38.2 SSE 11 15 1009.7 - 0.0 - - - - - - -
29/11:00am 39.0 SE 9 15 1010.2 - 0.0 - - - - - - -
29/10:30am 37.4 SE 7 14 1010.9 - 0.0 - - - - - - -
29/10:00am 35.2 SSE 7 12 1011.5 - 0.0 - - - - - - -
29/09:30am 32.5 S 7 10 1011.9 - 0.0 - - - - - - -
29/09:00am 31.3 S 6 9 1012.0 - 0.0 - - - - - - -
29/08:30am 29.4 S 7 9 1012.2 - 0.0 - - - - - - -
29/08:00am 27.9 S 7 9 1012.3 - 0.0 - - - - - - -
29/07:30am 25.9 S 4 6 1012.3 - 0.0 - - - - - - -
29/07:00am 24.5 SSE 7 9 1012.0 - 0.0 - - - - - - -
29/06:30am 23.3 SSE 8 10 1011.6 - 0.0 - - - - - - -
29/06:00am 21.8 SE 6 7 1011.3 - 0.0 - - - - - - -
29/05:30am 21.0 SSE 6 8 1010.8 - 0.0 - - - - - - -
29/05:00am 20.6 SSE 6 7 1010.5 - 0.0 - - - - - - -
29/04:30am 21.4 S 7 9 1009.9 - 0.0 - - - - - - -
29/04:00am 21.8 S 7 9 1009.6 - 0.0 - - - - - - -
29/03:30am 21.8 SSE 7 9 1009.5 - 0.0 - - - - - - -
29/03:00am 21.3 S 5 7 1009.2 - 0.0 - - - - - - -
29/02:30am 21.4 SSW 5 6 1009.4 - 0.0 - - - - - - -
29/02:00am 22.8 S 6 8 1009.7 - 0.0 - - - - - - -
29/01:30am 22.6 SSW 6 7 1009.7 - 0.0 - - - - - - -
29/01:00am 22.7 SSW 4 5 1009.9 - 0.0 - - - - - - -
29/12:30am 22.9 WSW 4 5 1010.0 - 0.0 - - - - - - -
29/12:00am 23.6 W 5 6 1010.3 - 0.0 - - - - - - -
 
Date/Time
WST
Temp

°C
Wind Pressure Rain
since 9am
mm
Weather Cloud Vis
km
Sea
Height
m
Swell
Dir
 
Speed
knots
Gust
knots
hPa Trend Height
m
Period
s
Dir
28/11:30pm 24.5 CALM 0 2 1010.6 - 0.0 - - - - - - -
28/11:00pm 25.0 W 1 4 1011.0 - 0.0 - - - - - - -
28/10:30pm 25.6 WNW 5 7 1011.2 - 0.0 - - - - - - -
28/10:00pm 26.3 WNW 8 10 1011.2 - 0.0 - - - - - - -
28/09:30pm 26.8 WNW 8 11 1011.3 - 0.0 - - - - - - -
28/09:00pm 27.6 WNW 9 12 1011.3 - 0.0 - - - - - - -
28/08:30pm 27.3 W 7 9 1011.2 - 0.0 - - - - - - -
28/08:00pm 27.7 NE 3 4 1010.9 - 0.0 - - - - - - -
28/07:30pm 28.3 WNW 8 10 1010.5 - 0.0 - - - - - - -
28/07:00pm 28.2 NW 7 9 1010.2 - 0.0 - - - - - - -
28/06:30pm 28.7 NW 7 9 1009.9 - 0.0 - - - - - - -
28/06:00pm 28.8 NNW 9 11 1009.5 - 0.0 - - - - - - -
28/05:30pm 28.9 NNW 12 15 1009.4 - 0.0 - - - - - - -
28/05:00pm 29.6 NNW 14 16 1009.0 - 0.0 - - - - - - -
28/04:30pm 31.5 NNW 14 16 1008.9 - 0.0 - - - - - - -

Other Formats:

Comma delimited format used in spreadsheet applications
http://www.bom.gov.au/fwo/IDW60701/IDW60701.95205.axf

JavaScript Object Notation format (JSON) in row-major order
http://www.bom.gov.au/fwo/IDW60701/IDW60701.95205.json